sensor_id;sensor_type;location;lat;lon;timestamp;P1;durP1;ratioP1;P2;durP2;ratioP2
73120;SDS011;61307;49.628;-1.624;2023-06-22T00:00:38;3.20;;;2.53;;
73120;SDS011;61307;49.628;-1.624;2023-06-22T00:03:20;4.07;;;2.88;;
73120;SDS011;61307;49.628;-1.624;2023-06-22T00:05:56;3.50;;;2.65;;
73120;SDS011;61307;49.628;-1.624;2023-06-22T00:08:36;3.88;;;2.58;;
73120;SDS011;61307;49.628;-1.624;2023-06-22T00:11:17;4.00;;;2.83;;
73120;SDS011;61307;49.628;-1.624;2023-06-22T00:13:59;3.90;;;2.80;;
73120;SDS011;61307;49.628;-1.624;2023-06-22T00:16:28;4.00;;;2.95;;
73120;SDS011;61307;49.628;-1.624;2023-06-22T00:18:56;4.68;;;2.95;;
73120;SDS011;61307;49.628;-1.624;2023-06-22T00:21:27;3.17;;;2.67;;
73120;SDS011;61307;49.628;-1.624;2023-06-22T00:23:55;3.55;;;2.90;;
73120;SDS011;61307;49.628;-1.624;2023-06-22T00:26:23;7.10;;;2.80;;
73120;SDS011;61307;49.628;-1.624;2023-06-22T00:28:50;3.10;;;2.80;;
73120;SDS011;61307;49.628;-1.624;2023-06-22T00:31:20;3.97;;;2.80;;
73120;SDS011;61307;49.628;-1.624;2023-06-22T00:33:55;3.40;;;2.78;;
73120;SDS011;61307;49.628;-1.624;2023-06-22T00:36:31;3.25;;;2.75;;
73120;SDS011;61307;49.628;-1.624;2023-06-22T00:38:59;4.25;;;2.78;;
73120;SDS011;61307;49.628;-1.624;2023-06-22T00:41:40;4.55;;;2.92;;
73120;SDS011;61307;49.628;-1.624;2023-06-22T00:44:07;4.85;;;3.42;;
73120;SDS011;61307;49.628;-1.624;2023-06-22T00:46:37;3.30;;;3.00;;
73120;SDS011;61307;49.628;-1.624;2023-06-22T00:49:05;3.63;;;2.65;;
73120;SDS011;61307;49.628;-1.624;2023-06-22T00:51:46;3.58;;;2.97;;
73120;SDS011;61307;49.628;-1.624;2023-06-22T00:54:14;3.88;;;2.90;;
73120;SDS011;61307;49.628;-1.624;2023-06-22T00:56:42;3.25;;;2.47;;
73120;SDS011;61307;49.628;-1.624;2023-06-22T00:59:13;3.17;;;2.80;;
73120;SDS011;61307;49.628;-1.624;2023-06-22T01:04:45;3.05;;;2.75;;
73120;SDS011;61307;49.628;-1.624;2023-06-22T01:07:27;6.50;;;2.72;;
73120;SDS011;61307;49.628;-1.624;2023-06-22T01:10:14;4.25;;;3.08;;
73120;SDS011;61307;49.628;-1.624;2023-06-22T01:12:48;3.95;;;2.78;;
73120;SDS011;61307;49.628;-1.624;2023-06-22T01:15:18;4.72;;;2.65;;
73120;SDS011;61307;49.628;-1.624;2023-06-22T01:23:40;3.58;;;2.75;;
73120;SDS011;61307;49.628;-1.624;2023-06-22T01:26:22;4.32;;;3.20;;
73120;SDS011;61307;49.628;-1.624;2023-06-22T01:29:16;6.13;;;3.10;;
73120;SDS011;61307;49.628;-1.624;2023-06-22T01:31:57;4.03;;;2.75;;
73120;SDS011;61307;49.628;-1.624;2023-06-22T01:34:27;3.17;;;2.80;;
73120;SDS011;61307;49.628;-1.624;2023-06-22T01:36:57;4.28;;;2.70;;
73120;SDS011;61307;49.628;-1.624;2023-06-22T01:39:27;4.43;;;3.00;;
73120;SDS011;61307;49.628;-1.624;2023-06-22T01:41:56;3.30;;;2.80;;
73120;SDS011;61307;49.628;-1.624;2023-06-22T01:44:33;3.35;;;2.72;;
73120;SDS011;61307;49.628;-1.624;2023-06-22T01:47:08;4.47;;;3.10;;
73120;SDS011;61307;49.628;-1.624;2023-06-22T01:49:50;3.85;;;2.97;;
73120;SDS011;61307;49.628;-1.624;2023-06-22T01:52:17;3.15;;;2.58;;
73120;SDS011;61307;49.628;-1.624;2023-06-22T01:55:01;3.70;;;2.88;;
73120;SDS011;61307;49.628;-1.624;2023-06-22T01:57:29;3.58;;;2.80;;
73120;SDS011;61307;49.628;-1.624;2023-06-22T02:00:01;3.47;;;2.95;;
73120;SDS011;61307;49.628;-1.624;2023-06-22T02:02:47;4.28;;;2.90;;
73120;SDS011;61307;49.628;-1.624;2023-06-22T02:05:20;2.95;;;2.65;;
73120;SDS011;61307;49.628;-1.624;2023-06-22T02:08:06;3.25;;;2.95;;
73120;SDS011;61307;49.628;-1.624;2023-06-22T02:10:35;3.97;;;2.90;;
73120;SDS011;61307;49.628;-1.624;2023-06-22T02:13:04;3.80;;;3.08;;
73120;SDS011;61307;49.628;-1.624;2023-06-22T02:15:35;3.22;;;2.90;;
73120;SDS011;61307;49.628;-1.624;2023-06-22T02:18:03;4.15;;;2.80;;
73120;SDS011;61307;49.628;-1.624;2023-06-22T02:20:30;3.55;;;2.92;;
73120;SDS011;61307;49.628;-1.624;2023-06-22T02:22:57;3.65;;;2.85;;
73120;SDS011;61307;49.628;-1.624;2023-06-22T02:25:25;3.40;;;2.88;;
73120;SDS011;61307;49.628;-1.624;2023-06-22T02:27:53;2.95;;;2.60;;
73120;SDS011;61307;49.628;-1.624;2023-06-22T02:30:20;2.97;;;2.55;;
73120;SDS011;61307;49.628;-1.624;2023-06-22T02:32:54;3.17;;;2.83;;
73120;SDS011;61307;49.628;-1.624;2023-06-22T02:35:25;3.45;;;2.58;;
73120;SDS011;61307;49.628;-1.624;2023-06-22T02:37:57;4.55;;;2.50;;
73120;SDS011;61307;49.628;-1.624;2023-06-22T02:40:38;4.55;;;2.90;;
73120;SDS011;61307;49.628;-1.624;2023-06-22T02:43:05;5.88;;;3.20;;
73120;SDS011;61307;49.628;-1.624;2023-06-22T02:45:32;4.30;;;2.90;;
73120;SDS011;61307;49.628;-1.624;2023-06-22T02:48:06;4.68;;;2.80;;
73120;SDS011;61307;49.628;-1.624;2023-06-22T02:50:33;3.90;;;3.00;;
73120;SDS011;61307;49.628;-1.624;2023-06-22T02:53:00;3.70;;;2.90;;
73120;SDS011;61307;49.628;-1.624;2023-06-22T02:55:28;3.78;;;2.70;;
73120;SDS011;61307;49.628;-1.624;2023-06-22T02:57:56;4.38;;;2.70;;
73120;SDS011;61307;49.628;-1.624;2023-06-22T03:00:25;2.85;;;2.53;;
73120;SDS011;61307;49.628;-1.624;2023-06-22T03:02:55;3.55;;;2.80;;
73120;SDS011;61307;49.628;-1.624;2023-06-22T03:05:26;3.58;;;2.53;;
73120;SDS011;61307;49.628;-1.624;2023-06-22T03:07:59;3.92;;;3.13;;
73120;SDS011;61307;49.628;-1.624;2023-06-22T03:10:40;3.67;;;2.80;;
73120;SDS011;61307;49.628;-1.624;2023-06-22T03:13:21;3.25;;;2.80;;
73120;SDS011;61307;49.628;-1.624;2023-06-22T03:15:48;3.15;;;2.85;;
73120;SDS011;61307;49.628;-1.624;2023-06-22T03:18:15;2.78;;;2.53;;
73120;SDS011;61307;49.628;-1.624;2023-06-22T03:20:45;3.15;;;2.85;;
73120;SDS011;61307;49.628;-1.624;2023-06-22T03:23:12;3.53;;;2.97;;
73120;SDS011;61307;49.628;-1.624;2023-06-22T03:25:43;3.78;;;2.70;;
73120;SDS011;61307;49.628;-1.624;2023-06-22T03:28:14;4.35;;;2.70;;
73120;SDS011;61307;49.628;-1.624;2023-06-22T03:30:42;3.65;;;2.95;;
73120;SDS011;61307;49.628;-1.624;2023-06-22T03:33:10;3.75;;;2.85;;
73120;SDS011;61307;49.628;-1.624;2023-06-22T03:35:37;3.58;;;2.78;;
73120;SDS011;61307;49.628;-1.624;2023-06-22T03:38:06;3.25;;;2.95;;
73120;SDS011;61307;49.628;-1.624;2023-06-22T03:40:33;4.45;;;3.30;;
73120;SDS011;61307;49.628;-1.624;2023-06-22T03:43:01;2.78;;;2.45;;
73120;SDS011;61307;49.628;-1.624;2023-06-22T03:45:28;3.25;;;2.92;;
73120;SDS011;61307;49.628;-1.624;2023-06-22T03:47:56;3.33;;;2.83;;
73120;SDS011;61307;49.628;-1.624;2023-06-22T03:50:23;4.25;;;3.05;;
73120;SDS011;61307;49.628;-1.624;2023-06-22T03:52:50;3.10;;;2.80;;
73120;SDS011;61307;49.628;-1.624;2023-06-22T03:55:21;3.63;;;2.65;;
73120;SDS011;61307;49.628;-1.624;2023-06-22T03:57:48;3.30;;;2.83;;
73120;SDS011;61307;49.628;-1.624;2023-06-22T04:00:18;3.92;;;2.90;;
73120;SDS011;61307;49.628;-1.624;2023-06-22T04:02:45;4.72;;;3.05;;
73120;SDS011;61307;49.628;-1.624;2023-06-22T04:05:14;3.05;;;2.53;;
73120;SDS011;61307;49.628;-1.624;2023-06-22T04:07:42;3.53;;;3.15;;
73120;SDS011;61307;49.628;-1.624;2023-06-22T04:10:09;4.32;;;3.00;;
73120;SDS011;61307;49.628;-1.624;2023-06-22T04:12:38;5.00;;;2.90;;
73120;SDS011;61307;49.628;-1.624;2023-06-22T04:15:06;5.07;;;3.15;;
73120;SDS011;61307;49.628;-1.624;2023-06-22T04:17:34;4.45;;;3.00;;
73120;SDS011;61307;49.628;-1.624;2023-06-22T04:20:01;4.00;;;3.03;;
73120;SDS011;61307;49.628;-1.624;2023-06-22T04:22:30;3.63;;;2.95;;
73120;SDS011;61307;49.628;-1.624;2023-06-22T04:24:58;3.42;;;3.10;;
73120;SDS011;61307;49.628;-1.624;2023-06-22T04:27:25;2.97;;;2.67;;
73120;SDS011;61307;49.628;-1.624;2023-06-22T04:32:40;3.15;;;2.85;;
73120;SDS011;61307;49.628;-1.624;2023-06-22T04:35:21;3.45;;;2.95;;
73120;SDS011;61307;49.628;-1.624;2023-06-22T04:37:48;3.92;;;3.25;;
73120;SDS011;61307;49.628;-1.624;2023-06-22T04:40:19;3.15;;;2.65;;
73120;SDS011;61307;49.628;-1.624;2023-06-22T04:42:47;5.25;;;3.35;;
73120;SDS011;61307;49.628;-1.624;2023-06-22T04:45:20;3.78;;;3.10;;
73120;SDS011;61307;49.628;-1.624;2023-06-22T04:47:48;4.32;;;3.20;;
73120;SDS011;61307;49.628;-1.624;2023-06-22T04:50:15;4.20;;;2.83;;
73120;SDS011;61307;49.628;-1.624;2023-06-22T04:52:42;3.85;;;3.35;;
73120;SDS011;61307;49.628;-1.624;2023-06-22T04:55:10;3.90;;;3.10;;
73120;SDS011;61307;49.628;-1.624;2023-06-22T04:57:37;3.42;;;2.88;;
73120;SDS011;61307;49.628;-1.624;2023-06-22T05:00:05;3.65;;;3.00;;
73120;SDS011;61307;49.628;-1.624;2023-06-22T05:02:44;5.65;;;3.30;;
73120;SDS011;61307;49.628;-1.624;2023-06-22T05:05:13;3.63;;;2.85;;
73120;SDS011;61307;49.628;-1.624;2023-06-22T05:07:55;3.90;;;3.10;;
73120;SDS011;61307;49.628;-1.624;2023-06-22T05:10:25;4.93;;;3.08;;
73120;SDS011;61307;49.628;-1.624;2023-06-22T05:12:53;4.57;;;2.90;;
73120;SDS011;61307;49.628;-1.624;2023-06-22T05:15:21;3.38;;;2.75;;
73120;SDS011;61307;49.628;-1.624;2023-06-22T05:17:54;4.35;;;3.10;;
73120;SDS011;61307;49.628;-1.624;2023-06-22T05:20:23;3.20;;;2.60;;
73120;SDS011;61307;49.628;-1.624;2023-06-22T05:23:04;3.35;;;2.92;;
73120;SDS011;61307;49.628;-1.624;2023-06-22T05:25:31;4.93;;;2.80;;
73120;SDS011;61307;49.628;-1.624;2023-06-22T05:27:58;3.95;;;3.22;;
73120;SDS011;61307;49.628;-1.624;2023-06-22T05:30:36;3.92;;;2.90;;
73120;SDS011;61307;49.628;-1.624;2023-06-22T05:36:05;4.63;;;2.92;;
73120;SDS011;61307;49.628;-1.624;2023-06-22T05:38:46;3.40;;;2.80;;
73120;SDS011;61307;49.628;-1.624;2023-06-22T05:41:28;3.55;;;2.95;;
73120;SDS011;61307;49.628;-1.624;2023-06-22T05:44:09;4.10;;;2.75;;
73120;SDS011;61307;49.628;-1.624;2023-06-22T05:46:39;5.50;;;2.92;;
73120;SDS011;61307;49.628;-1.624;2023-06-22T05:55:03;4.28;;;2.95;;
73120;SDS011;61307;49.628;-1.624;2023-06-22T05:57:38;3.38;;;2.88;;
73120;SDS011;61307;49.628;-1.624;2023-06-22T06:00:06;5.47;;;2.97;;
73120;SDS011;61307;49.628;-1.624;2023-06-22T06:02:36;3.83;;;2.70;;
73120;SDS011;61307;49.628;-1.624;2023-06-22T06:05:08;4.07;;;3.00;;
73120;SDS011;61307;49.628;-1.624;2023-06-22T06:10:35;3.92;;;2.72;;
73120;SDS011;61307;49.628;-1.624;2023-06-22T06:13:02;3.67;;;2.85;;
73120;SDS011;61307;49.628;-1.624;2023-06-22T06:15:30;3.20;;;2.90;;
73120;SDS011;61307;49.628;-1.624;2023-06-22T06:17:58;3.63;;;3.00;;
73120;SDS011;61307;49.628;-1.624;2023-06-22T06:20:25;3.85;;;2.78;;
73120;SDS011;61307;49.628;-1.624;2023-06-22T06:22:54;3.75;;;2.75;;
73120;SDS011;61307;49.628;-1.624;2023-06-22T06:25:38;4.18;;;2.85;;
73120;SDS011;61307;49.628;-1.624;2023-06-22T06:28:19;4.07;;;2.88;;
73120;SDS011;61307;49.628;-1.624;2023-06-22T06:30:46;4.13;;;2.95;;
73120;SDS011;61307;49.628;-1.624;2023-06-22T06:33:27;4.25;;;2.83;;
73120;SDS011;61307;49.628;-1.624;2023-06-22T06:35:56;5.88;;;2.92;;
73120;SDS011;61307;49.628;-1.624;2023-06-22T06:38:28;3.80;;;3.08;;
73120;SDS011;61307;49.628;-1.624;2023-06-22T06:41:02;4.45;;;2.97;;
73120;SDS011;61307;49.628;-1.624;2023-06-22T06:43:42;4.65;;;3.55;;
73120;SDS011;61307;49.628;-1.624;2023-06-22T06:46:10;4.03;;;3.10;;
73120;SDS011;61307;49.628;-1.624;2023-06-22T06:48:37;3.88;;;3.10;;
73120;SDS011;61307;49.628;-1.624;2023-06-22T06:51:04;4.38;;;2.75;;
73120;SDS011;61307;49.628;-1.624;2023-06-22T06:53:34;5.20;;;3.50;;
73120;SDS011;61307;49.628;-1.624;2023-06-22T06:56:04;4.40;;;3.47;;
73120;SDS011;61307;49.628;-1.624;2023-06-22T06:58:31;3.55;;;3.05;;
73120;SDS011;61307;49.628;-1.624;2023-06-22T07:00:59;5.20;;;3.15;;
73120;SDS011;61307;49.628;-1.624;2023-06-22T07:03:30;5.30;;;3.30;;
73120;SDS011;61307;49.628;-1.624;2023-06-22T07:05:58;4.32;;;3.55;;
73120;SDS011;61307;49.628;-1.624;2023-06-22T07:08:26;4.05;;;3.03;;
73120;SDS011;61307;49.628;-1.624;2023-06-22T07:10:53;4.43;;;3.50;;
73120;SDS011;61307;49.628;-1.624;2023-06-22T07:13:23;3.65;;;3.10;;
73120;SDS011;61307;49.628;-1.624;2023-06-22T07:15:51;3.33;;;2.90;;
73120;SDS011;61307;49.628;-1.624;2023-06-22T07:18:19;10.13;;;3.33;;
73120;SDS011;61307;49.628;-1.624;2023-06-22T07:20:48;4.93;;;2.88;;
73120;SDS011;61307;49.628;-1.624;2023-06-22T07:37:44;6.53;;;3.47;;
73120;SDS011;61307;49.628;-1.624;2023-06-22T07:40:11;13.88;;;3.80;;
73120;SDS011;61307;49.628;-1.624;2023-06-22T07:42:39;11.55;;;2.95;;
73120;SDS011;61307;49.628;-1.624;2023-06-22T07:45:06;4.45;;;3.30;;
73120;SDS011;61307;49.628;-1.624;2023-06-22T07:47:34;4.97;;;3.30;;
73120;SDS011;61307;49.628;-1.624;2023-06-22T07:50:02;7.72;;;3.38;;
73120;SDS011;61307;49.628;-1.624;2023-06-22T07:52:29;5.22;;;2.90;;
73120;SDS011;61307;49.628;-1.624;2023-06-22T07:54:59;4.03;;;3.05;;
73120;SDS011;61307;49.628;-1.624;2023-06-22T07:57:27;4.75;;;3.13;;
73120;SDS011;61307;49.628;-1.624;2023-06-22T07:59:59;3.67;;;3.10;;
73120;SDS011;61307;49.628;-1.624;2023-06-22T08:02:26;6.15;;;3.50;;
73120;SDS011;61307;49.628;-1.624;2023-06-22T08:04:53;4.00;;;3.03;;
73120;SDS011;61307;49.628;-1.624;2023-06-22T08:07:20;11.38;;;3.03;;
73120;SDS011;61307;49.628;-1.624;2023-06-22T08:09:49;3.78;;;2.92;;
73120;SDS011;61307;49.628;-1.624;2023-06-22T08:12:17;6.35;;;3.63;;
73120;SDS011;61307;49.628;-1.624;2023-06-22T08:14:49;9.40;;;3.47;;
73120;SDS011;61307;49.628;-1.624;2023-06-22T08:17:16;4.50;;;3.10;;
73120;SDS011;61307;49.628;-1.624;2023-06-22T08:19:43;7.45;;;3.30;;
73120;SDS011;61307;49.628;-1.624;2023-06-22T08:22:11;15.32;;;3.10;;
73120;SDS011;61307;49.628;-1.624;2023-06-22T08:24:38;5.75;;;3.15;;
73120;SDS011;61307;49.628;-1.624;2023-06-22T08:27:06;9.30;;;3.17;;
73120;SDS011;61307;49.628;-1.624;2023-06-22T08:29:37;7.63;;;3.20;;
73120;SDS011;61307;49.628;-1.624;2023-06-22T08:32:04;5.63;;;3.20;;
73120;SDS011;61307;49.628;-1.624;2023-06-22T08:34:32;6.95;;;3.17;;
73120;SDS011;61307;49.628;-1.624;2023-06-22T08:37:04;5.00;;;3.08;;
73120;SDS011;61307;49.628;-1.624;2023-06-22T08:42:20;8.40;;;3.28;;
73120;SDS011;61307;49.628;-1.624;2023-06-22T08:44:49;11.55;;;3.47;;
73120;SDS011;61307;49.628;-1.624;2023-06-22T08:47:17;4.38;;;3.70;;
73120;SDS011;61307;49.628;-1.624;2023-06-22T08:49:45;7.35;;;3.60;;
73120;SDS011;61307;49.628;-1.624;2023-06-22T08:52:12;7.10;;;4.00;;
73120;SDS011;61307;49.628;-1.624;2023-06-22T08:54:39;4.78;;;3.20;;
73120;SDS011;61307;49.628;-1.624;2023-06-22T08:57:08;9.60;;;3.42;;
73120;SDS011;61307;49.628;-1.624;2023-06-22T08:59:35;4.70;;;3.53;;
73120;SDS011;61307;49.628;-1.624;2023-06-22T09:02:03;5.72;;;3.40;;
73120;SDS011;61307;49.628;-1.624;2023-06-22T09:04:31;9.20;;;3.50;;
73120;SDS011;61307;49.628;-1.624;2023-06-22T09:06:59;4.43;;;3.33;;
73120;SDS011;61307;49.628;-1.624;2023-06-22T09:09:26;7.75;;;3.35;;
73120;SDS011;61307;49.628;-1.624;2023-06-22T09:11:53;14.27;;;3.58;;
73120;SDS011;61307;49.628;-1.624;2023-06-22T09:16:51;7.50;;;3.55;;
73120;SDS011;61307;49.628;-1.624;2023-06-22T09:19:19;5.07;;;3.30;;
73120;SDS011;61307;49.628;-1.624;2023-06-22T09:21:46;6.60;;;3.80;;
73120;SDS011;61307;49.628;-1.624;2023-06-22T09:24:15;7.53;;;4.13;;
73120;SDS011;61307;49.628;-1.624;2023-06-22T09:26:42;8.48;;;4.00;;
73120;SDS011;61307;49.628;-1.624;2023-06-22T09:29:09;5.03;;;3.60;;
73120;SDS011;61307;49.628;-1.624;2023-06-22T09:31:36;5.65;;;3.78;;
73120;SDS011;61307;49.628;-1.624;2023-06-22T09:34:04;7.10;;;3.83;;
73120;SDS011;61307;49.628;-1.624;2023-06-22T09:36:32;8.38;;;4.13;;
73120;SDS011;61307;49.628;-1.624;2023-06-22T09:41:47;12.95;;;4.20;;
73120;SDS011;61307;49.628;-1.624;2023-06-22T09:44:14;15.77;;;4.40;;
73120;SDS011;61307;49.628;-1.624;2023-06-22T09:46:41;13.98;;;4.35;;
73120;SDS011;61307;49.628;-1.624;2023-06-22T09:49:08;12.60;;;4.60;;
73120;SDS011;61307;49.628;-1.624;2023-06-22T09:51:37;16.92;;;4.88;;
73120;SDS011;61307;49.628;-1.624;2023-06-22T09:54:04;13.25;;;4.82;;
73120;SDS011;61307;49.628;-1.624;2023-06-22T09:56:31;11.15;;;3.92;;
73120;SDS011;61307;49.628;-1.624;2023-06-22T09:58:58;19.38;;;4.40;;
73120;SDS011;61307;49.628;-1.624;2023-06-22T10:01:25;19.33;;;4.60;;
73120;SDS011;61307;49.628;-1.624;2023-06-22T10:03:52;16.85;;;4.38;;
73120;SDS011;61307;49.628;-1.624;2023-06-22T10:06:21;9.80;;;3.85;;
73120;SDS011;61307;49.628;-1.624;2023-06-22T10:08:51;19.15;;;4.55;;
73120;SDS011;61307;49.628;-1.624;2023-06-22T10:11:18;12.88;;;4.50;;
73120;SDS011;61307;49.628;-1.624;2023-06-22T10:13:45;10.18;;;3.88;;
73120;SDS011;61307;49.628;-1.624;2023-06-22T10:16:12;15.70;;;4.05;;
73120;SDS011;61307;49.628;-1.624;2023-06-22T10:18:39;7.80;;;3.80;;
73120;SDS011;61307;49.628;-1.624;2023-06-22T10:21:06;14.90;;;4.40;;
73120;SDS011;61307;49.628;-1.624;2023-06-22T10:23:34;7.22;;;3.70;;
73120;SDS011;61307;49.628;-1.624;2023-06-22T10:26:02;10.35;;;4.60;;
73120;SDS011;61307;49.628;-1.624;2023-06-22T10:28:29;10.18;;;3.70;;
73120;SDS011;61307;49.628;-1.624;2023-06-22T10:30:56;6.32;;;3.90;;
73120;SDS011;61307;49.628;-1.624;2023-06-22T10:33:23;7.32;;;3.97;;
73120;SDS011;61307;49.628;-1.624;2023-06-22T10:35:50;9.70;;;4.25;;
73120;SDS011;61307;49.628;-1.624;2023-06-22T10:38:17;7.43;;;4.03;;
73120;SDS011;61307;49.628;-1.624;2023-06-22T10:40:44;6.65;;;4.05;;
73120;SDS011;61307;49.628;-1.624;2023-06-22T10:43:12;11.75;;;4.05;;
73120;SDS011;61307;49.628;-1.624;2023-06-22T10:45:39;7.72;;;3.97;;
73120;SDS011;61307;49.628;-1.624;2023-06-22T10:48:06;5.15;;;3.92;;
73120;SDS011;61307;49.628;-1.624;2023-06-22T10:50:33;7.30;;;3.90;;
73120;SDS011;61307;49.628;-1.624;2023-06-22T10:53:00;5.63;;;4.20;;
73120;SDS011;61307;49.628;-1.624;2023-06-22T10:55:27;6.72;;;4.43;;
73120;SDS011;61307;49.628;-1.624;2023-06-22T10:57:54;4.43;;;4.00;;
73120;SDS011;61307;49.628;-1.624;2023-06-22T11:00:23;7.55;;;4.20;;
73120;SDS011;61307;49.628;-1.624;2023-06-22T11:02:50;6.20;;;3.80;;
73120;SDS011;61307;49.628;-1.624;2023-06-22T11:05:17;7.90;;;4.75;;
73120;SDS011;61307;49.628;-1.624;2023-06-22T11:07:44;6.28;;;4.30;;
73120;SDS011;61307;49.628;-1.624;2023-06-22T11:10:11;5.88;;;4.28;;
73120;SDS011;61307;49.628;-1.624;2023-06-22T11:12:39;9.85;;;4.57;;
73120;SDS011;61307;49.628;-1.624;2023-06-22T11:15:08;5.93;;;4.57;;
73120;SDS011;61307;49.628;-1.624;2023-06-22T11:17:36;7.97;;;4.15;;
73120;SDS011;61307;49.628;-1.624;2023-06-22T11:20:04;6.47;;;4.18;;
73120;SDS011;61307;49.628;-1.624;2023-06-22T11:22:35;7.13;;;4.43;;
73120;SDS011;61307;49.628;-1.624;2023-06-22T11:25:04;6.28;;;4.25;;
73120;SDS011;61307;49.628;-1.624;2023-06-22T11:27:32;7.57;;;4.18;;
73120;SDS011;61307;49.628;-1.624;2023-06-22T11:29:59;6.05;;;4.35;;
73120;SDS011;61307;49.628;-1.624;2023-06-22T11:32:26;6.60;;;4.15;;
73120;SDS011;61307;49.628;-1.624;2023-06-22T11:34:54;7.32;;;4.47;;
73120;SDS011;61307;49.628;-1.624;2023-06-22T11:37:22;5.47;;;4.60;;
73120;SDS011;61307;49.628;-1.624;2023-06-22T11:39:49;6.63;;;4.30;;
73120;SDS011;61307;49.628;-1.624;2023-06-22T11:42:16;5.65;;;4.65;;
73120;SDS011;61307;49.628;-1.624;2023-06-22T11:44:43;8.07;;;4.25;;
73120;SDS011;61307;49.628;-1.624;2023-06-22T11:47:10;5.03;;;4.35;;
73120;SDS011;61307;49.628;-1.624;2023-06-22T11:49:37;5.15;;;4.22;;
73120;SDS011;61307;49.628;-1.624;2023-06-22T11:52:06;6.30;;;4.38;;
73120;SDS011;61307;49.628;-1.624;2023-06-22T11:54:33;6.40;;;5.07;;
73120;SDS011;61307;49.628;-1.624;2023-06-22T11:57:00;6.32;;;4.70;;
73120;SDS011;61307;49.628;-1.624;2023-06-22T11:59:27;6.03;;;4.55;;
73120;SDS011;61307;49.628;-1.624;2023-06-22T12:01:54;5.03;;;4.53;;
73120;SDS011;61307;49.628;-1.624;2023-06-22T12:04:23;5.35;;;4.43;;
73120;SDS011;61307;49.628;-1.624;2023-06-22T12:06:50;7.70;;;4.65;;
73120;SDS011;61307;49.628;-1.624;2023-06-22T12:09:18;5.70;;;3.97;;
73120;SDS011;61307;49.628;-1.624;2023-06-22T12:11:45;6.07;;;4.47;;
73120;SDS011;61307;49.628;-1.624;2023-06-22T12:14:13;5.78;;;4.95;;
73120;SDS011;61307;49.628;-1.624;2023-06-22T12:16:39;5.57;;;4.55;;
73120;SDS011;61307;49.628;-1.624;2023-06-22T12:19:08;5.90;;;5.28;;
73120;SDS011;61307;49.628;-1.624;2023-06-22T12:21:35;5.65;;;4.68;;
73120;SDS011;61307;49.628;-1.624;2023-06-22T12:24:03;5.53;;;4.57;;
73120;SDS011;61307;49.628;-1.624;2023-06-22T12:26:31;7.32;;;4.45;;
73120;SDS011;61307;49.628;-1.624;2023-06-22T12:28:58;12.07;;;4.90;;
73120;SDS011;61307;49.628;-1.624;2023-06-22T12:31:25;5.53;;;4.45;;
73120;SDS011;61307;49.628;-1.624;2023-06-22T12:33:52;5.47;;;4.30;;
73120;SDS011;61307;49.628;-1.624;2023-06-22T12:36:19;6.13;;;4.90;;
73120;SDS011;61307;49.628;-1.624;2023-06-22T12:38:46;6.55;;;4.60;;
73120;SDS011;61307;49.628;-1.624;2023-06-22T12:41:13;7.68;;;4.15;;
73120;SDS011;61307;49.628;-1.624;2023-06-22T12:43:42;8.60;;;4.28;;
73120;SDS011;61307;49.628;-1.624;2023-06-22T12:46:09;5.70;;;4.82;;
73120;SDS011;61307;49.628;-1.624;2023-06-22T12:48:36;6.45;;;4.72;;
73120;SDS011;61307;49.628;-1.624;2023-06-22T12:51:08;6.28;;;4.57;;
73120;SDS011;61307;49.628;-1.624;2023-06-22T12:53:35;5.13;;;4.63;;
73120;SDS011;61307;49.628;-1.624;2023-06-22T12:56:02;5.47;;;4.60;;
73120;SDS011;61307;49.628;-1.624;2023-06-22T12:58:29;5.97;;;4.35;;
73120;SDS011;61307;49.628;-1.624;2023-06-22T13:00:58;6.15;;;4.57;;
73120;SDS011;61307;49.628;-1.624;2023-06-22T13:03:25;7.03;;;4.10;;
73120;SDS011;61307;49.628;-1.624;2023-06-22T13:05:53;6.38;;;4.28;;
73120;SDS011;61307;49.628;-1.624;2023-06-22T13:08:20;7.32;;;4.28;;
73120;SDS011;61307;49.628;-1.624;2023-06-22T13:10:47;5.07;;;4.32;;
73120;SDS011;61307;49.628;-1.624;2023-06-22T13:13:14;5.90;;;4.28;;
73120;SDS011;61307;49.628;-1.624;2023-06-22T13:15:41;5.88;;;4.20;;
73120;SDS011;61307;49.628;-1.624;2023-06-22T13:18:10;5.22;;;4.57;;
73120;SDS011;61307;49.628;-1.624;2023-06-22T13:20:37;5.90;;;3.90;;
73120;SDS011;61307;49.628;-1.624;2023-06-22T13:23:04;4.78;;;3.97;;
73120;SDS011;61307;49.628;-1.624;2023-06-22T13:25:31;6.10;;;3.90;;
73120;SDS011;61307;49.628;-1.624;2023-06-22T13:28:03;4.45;;;3.60;;
73120;SDS011;61307;49.628;-1.624;2023-06-22T13:30:31;5.45;;;4.95;;
73120;SDS011;61307;49.628;-1.624;2023-06-22T13:32:58;7.53;;;5.00;;
73120;SDS011;61307;49.628;-1.624;2023-06-22T13:35:27;5.88;;;4.72;;
73120;SDS011;61307;49.628;-1.624;2023-06-22T13:37:54;6.30;;;4.50;;
73120;SDS011;61307;49.628;-1.624;2023-06-22T13:40:22;4.80;;;4.22;;
73120;SDS011;61307;49.628;-1.624;2023-06-22T13:42:50;4.47;;;4.07;;
73120;SDS011;61307;49.628;-1.624;2023-06-22T13:45:17;18.40;;;4.55;;
73120;SDS011;61307;49.628;-1.624;2023-06-22T13:47:45;4.97;;;4.47;;
73120;SDS011;61307;49.628;-1.624;2023-06-22T13:50:12;4.57;;;3.95;;
73120;SDS011;61307;49.628;-1.624;2023-06-22T13:52:41;4.38;;;3.97;;
73120;SDS011;61307;49.628;-1.624;2023-06-22T13:55:09;4.88;;;3.60;;
73120;SDS011;61307;49.628;-1.624;2023-06-22T13:57:36;3.90;;;3.50;;
73120;SDS011;61307;49.628;-1.624;2023-06-22T14:00:04;4.13;;;3.72;;
73120;SDS011;61307;49.628;-1.624;2023-06-22T14:02:33;7.43;;;3.80;;
73120;SDS011;61307;49.628;-1.624;2023-06-22T14:05:01;4.13;;;3.70;;
73120;SDS011;61307;49.628;-1.624;2023-06-22T14:07:28;5.63;;;3.45;;
73120;SDS011;61307;49.628;-1.624;2023-06-22T14:09:59;6.90;;;3.33;;
73120;SDS011;61307;49.628;-1.624;2023-06-22T14:12:27;4.15;;;3.55;;
73120;SDS011;61307;49.628;-1.624;2023-06-22T14:14:54;4.05;;;3.40;;
73120;SDS011;61307;49.628;-1.624;2023-06-22T14:17:22;7.70;;;3.20;;
73120;SDS011;61307;49.628;-1.624;2023-06-22T14:19:52;7.00;;;3.38;;
73120;SDS011;61307;49.628;-1.624;2023-06-22T14:22:20;3.40;;;3.10;;
73120;SDS011;61307;49.628;-1.624;2023-06-22T14:24:48;4.65;;;3.75;;
73120;SDS011;61307;49.628;-1.624;2023-06-22T14:27:17;5.65;;;3.80;;
73120;SDS011;61307;49.628;-1.624;2023-06-22T14:29:46;7.60;;;3.30;;
73120;SDS011;61307;49.628;-1.624;2023-06-22T14:32:13;4.82;;;3.88;;
73120;SDS011;61307;49.628;-1.624;2023-06-22T14:34:41;5.35;;;3.38;;
73120;SDS011;61307;49.628;-1.624;2023-06-22T14:37:11;6.55;;;3.30;;
73120;SDS011;61307;49.628;-1.624;2023-06-22T14:39:39;5.25;;;3.20;;
73120;SDS011;61307;49.628;-1.624;2023-06-22T14:42:06;6.82;;;3.35;;
73120;SDS011;61307;49.628;-1.624;2023-06-22T14:44:37;5.25;;;3.55;;
73120;SDS011;61307;49.628;-1.624;2023-06-22T14:47:08;5.00;;;3.63;;
73120;SDS011;61307;49.628;-1.624;2023-06-22T14:49:36;3.95;;;3.35;;
73120;SDS011;61307;49.628;-1.624;2023-06-22T14:52:20;8.43;;;3.50;;
73120;SDS011;61307;49.628;-1.624;2023-06-22T14:54:48;6.80;;;3.72;;
73120;SDS011;61307;49.628;-1.624;2023-06-22T14:57:17;9.52;;;3.17;;
73120;SDS011;61307;49.628;-1.624;2023-06-22T14:59:50;6.72;;;3.88;;
73120;SDS011;61307;49.628;-1.624;2023-06-22T15:02:17;7.10;;;3.67;;
73120;SDS011;61307;49.628;-1.624;2023-06-22T15:04:45;5.05;;;3.92;;
73120;SDS011;61307;49.628;-1.624;2023-06-22T15:07:13;5.13;;;3.75;;
73120;SDS011;61307;49.628;-1.624;2023-06-22T15:09:55;6.82;;;3.95;;
73120;SDS011;61307;49.628;-1.624;2023-06-22T15:12:27;6.88;;;3.80;;
73120;SDS011;61307;49.628;-1.624;2023-06-22T15:15:12;9.07;;;3.67;;
73120;SDS011;61307;49.628;-1.624;2023-06-22T15:17:39;8.95;;;4.38;;
73120;SDS011;61307;49.628;-1.624;2023-06-22T15:20:10;9.13;;;6.43;;
73120;SDS011;61307;49.628;-1.624;2023-06-22T15:22:40;11.25;;;7.53;;
73120;SDS011;61307;49.628;-1.624;2023-06-22T15:25:07;13.52;;;6.88;;
73120;SDS011;61307;49.628;-1.624;2023-06-22T15:27:41;10.07;;;6.23;;
73120;SDS011;61307;49.628;-1.624;2023-06-22T15:30:12;12.35;;;7.18;;
73120;SDS011;61307;49.628;-1.624;2023-06-22T15:32:46;19.75;;;8.68;;